Alexandria, Kentucky
Current Conditions -  °F | °C
As of 5:53 AM on Friday 31 Oct 2014 (Local Time) from KLUK Reporting Station
Overcast Overcast  
Wind Chill:   Ceiling: 5500
Heat Index:   Visibility: 8mi
Dew Point:   Wind: 0mph
Humidity: 97%   Direction: NA
Pressure: 30.01"   Gusts: NA
Location:  38.96°N, 84.4°W
Report Text: KLUK 310953Z AUTO 00000KT 8SM OVC055 06/06 A3001 RMK AO2 RAE01 SLP162 P0000 T00610056
Loading
Personal Weather Stations






























Interactive Weather Map New forecast layout! Learn more

10-Day Weather Forecast

Advertisements
Track Severe Weather on mobile